sensor_id;sensor_type;location;lat;lon;timestamp;pressure;altitude;pressure_sealevel;temperature;humidity
41040;BME280;48586;50.122;18.972;2023-03-01T00:00:35;99761.94;;;-1.17;54.27
41040;BME280;48586;50.122;18.972;2023-03-01T00:02:39;99763.88;;;-1.19;54.02
41040;BME280;48586;50.122;18.972;2023-03-01T00:04:44;99767.56;;;-1.22;54.06
41040;BME280;48586;50.122;18.972;2023-03-01T00:06:50;99763.44;;;-1.24;54.16
41040;BME280;48586;50.122;18.972;2023-03-01T00:08:57;99760.69;;;-1.23;54.18
41040;BME280;48586;50.122;18.972;2023-03-01T00:11:03;99762.47;;;-1.23;54.05
41040;BME280;48586;50.122;18.972;2023-03-01T00:13:11;99763.44;;;-1.24;54.22
41040;BME280;48586;50.122;18.972;2023-03-01T00:15:16;99761.63;;;-1.24;54.28
41040;BME280;48586;50.122;18.972;2023-03-01T00:17:21;99759.03;;;-1.24;54.12
41040;BME280;48586;50.122;18.972;2023-03-01T00:19:26;99757.47;;;-1.26;54.44
41040;BME280;48586;50.122;18.972;2023-03-01T00:21:31;99756.66;;;-1.27;54.04
41040;BME280;48586;50.122;18.972;2023-03-01T00:23:37;99754.19;;;-1.28;54.46
41040;BME280;48586;50.122;18.972;2023-03-01T00:25:45;99756.78;;;-1.28;54.07
41040;BME280;48586;50.122;18.972;2023-03-01T00:27:50;99758.69;;;-1.31;54.26
41040;BME280;48586;50.122;18.972;2023-03-01T00:29:56;99754.41;;;-1.32;54.33
41040;BME280;48586;50.122;18.972;2023-03-01T00:32:01;99755.25;;;-1.31;54.15
41040;BME280;48586;50.122;18.972;2023-03-01T00:34:07;99745.03;;;-1.34;54.26
41040;BME280;48586;50.122;18.972;2023-03-01T00:36:13;99754.66;;;-1.35;54.73
41040;BME280;48586;50.122;18.972;2023-03-01T00:38:20;99744.22;;;-1.35;54.57
41040;BME280;48586;50.122;18.972;2023-03-01T00:40:25;99746.00;;;-1.35;54.41
41040;BME280;48586;50.122;18.972;2023-03-01T00:42:32;99742.56;;;-1.36;54.43
41040;BME280;48586;50.122;18.972;2023-03-01T00:44:39;99738.97;;;-1.35;54.43
41040;BME280;48586;50.122;18.972;2023-03-01T00:46:44;99741.84;;;-1.38;54.43
41040;BME280;48586;50.122;18.972;2023-03-01T00:48:49;99732.72;;;-1.43;54.14
41040;BME280;48586;50.122;18.972;2023-03-01T00:50:55;99741.91;;;-1.49;54.47
41040;BME280;48586;50.122;18.972;2023-03-01T00:53:00;99743.34;;;-1.56;54.65
41040;BME280;48586;50.122;18.972;2023-03-01T00:55:07;99737.66;;;-1.61;55.12
41040;BME280;48586;50.122;18.972;2023-03-01T00:57:12;99734.34;;;-1.63;55.15
41040;BME280;48586;50.122;18.972;2023-03-01T00:59:19;99733.25;;;-1.61;55.16
41040;BME280;48586;50.122;18.972;2023-03-01T01:01:26;99741.34;;;-1.64;55.03
41040;BME280;48586;50.122;18.972;2023-03-01T01:03:34;99744.91;;;-1.65;55.22
41040;BME280;48586;50.122;18.972;2023-03-01T01:05:38;99739.91;;;-1.68;55.26
41040;BME280;48586;50.122;18.972;2023-03-01T01:07:43;99735.66;;;-1.69;55.27
41040;BME280;48586;50.122;18.972;2023-03-01T01:09:48;99733.31;;;-1.72;55.14
41040;BME280;48586;50.122;18.972;2023-03-01T01:11:53;99735.44;;;-1.77;55.39
41040;BME280;48586;50.122;18.972;2023-03-01T01:13:59;99736.53;;;-1.80;55.57
41040;BME280;48586;50.122;18.972;2023-03-01T01:16:08;99721.69;;;-1.79;55.37
41040;BME280;48586;50.122;18.972;2023-03-01T01:18:14;99729.53;;;-1.79;55.77
41040;BME280;48586;50.122;18.972;2023-03-01T01:20:18;99724.44;;;-1.81;55.83
41040;BME280;48586;50.122;18.972;2023-03-01T01:22:24;99728.78;;;-1.81;55.68
41040;BME280;48586;50.122;18.972;2023-03-01T01:24:29;99725.50;;;-1.83;55.63
41040;BME280;48586;50.122;18.972;2023-03-01T01:26:35;99724.66;;;-1.84;55.52
41040;BME280;48586;50.122;18.972;2023-03-01T01:28:40;99719.44;;;-1.84;55.60
41040;BME280;48586;50.122;18.972;2023-03-01T01:30:45;99721.31;;;-1.86;55.60
41040;BME280;48586;50.122;18.972;2023-03-01T01:32:53;99714.44;;;-1.87;55.69
41040;BME280;48586;50.122;18.972;2023-03-01T01:34:57;99717.88;;;-1.86;55.88
41040;BME280;48586;50.122;18.972;2023-03-01T01:37:02;99719.69;;;-1.87;55.61
41040;BME280;48586;50.122;18.972;2023-03-01T01:39:09;99711.97;;;-1.88;56.06
41040;BME280;48586;50.122;18.972;2023-03-01T01:41:15;99711.84;;;-1.87;55.71
41040;BME280;48586;50.122;18.972;2023-03-01T01:43:24;99703.03;;;-1.86;55.79
41040;BME280;48586;50.122;18.972;2023-03-01T01:45:33;99697.00;;;-1.86;55.84
41040;BME280;48586;50.122;18.972;2023-03-01T01:47:40;99694.16;;;-1.83;55.87
41040;BME280;48586;50.122;18.972;2023-03-01T01:49:49;99701.03;;;-1.82;55.89
41040;BME280;48586;50.122;18.972;2023-03-01T01:52:03;99696.91;;;-1.85;56.08
41040;BME280;48586;50.122;18.972;2023-03-01T01:54:15;99697.81;;;-1.86;55.79
41040;BME280;48586;50.122;18.972;2023-03-01T01:56:26;99701.25;;;-1.85;55.62
41040;BME280;48586;50.122;18.972;2023-03-01T01:58:33;99700.56;;;-1.87;55.62
41040;BME280;48586;50.122;18.972;2023-03-01T02:00:40;99687.75;;;-1.90;55.70
41040;BME280;48586;50.122;18.972;2023-03-01T02:02:48;99696.41;;;-1.90;55.67
41040;BME280;48586;50.122;18.972;2023-03-01T02:05:05;99691.31;;;-1.91;56.01
41040;BME280;48586;50.122;18.972;2023-03-01T02:07:18;99689.53;;;-1.91;55.67
41040;BME280;48586;50.122;18.972;2023-03-01T02:09:25;99692.38;;;-1.94;55.63
41040;BME280;48586;50.122;18.972;2023-03-01T02:11:33;99685.78;;;-1.98;55.55
41040;BME280;48586;50.122;18.972;2023-03-01T02:13:41;99685.88;;;-1.99;56.13
41040;BME280;48586;50.122;18.972;2023-03-01T02:15:46;99679.97;;;-2.01;56.23
41040;BME280;48586;50.122;18.972;2023-03-01T02:17:53;99680.78;;;-2.01;56.22
41040;BME280;48586;50.122;18.972;2023-03-01T02:20:14;99679.13;;;-2.02;56.23
41040;BME280;48586;50.122;18.972;2023-03-01T02:22:30;99675.94;;;-2.06;55.99
41040;BME280;48586;50.122;18.972;2023-03-01T02:24:44;99682.94;;;-2.06;56.35
41040;BME280;48586;50.122;18.972;2023-03-01T02:27:05;99679.59;;;-2.08;56.47
41040;BME280;48586;50.122;18.972;2023-03-01T02:29:13;99683.19;;;-2.09;56.76
41040;BME280;48586;50.122;18.972;2023-03-01T02:31:20;99679.84;;;-2.11;56.76
41040;BME280;48586;50.122;18.972;2023-03-01T02:33:48;99674.88;;;-2.14;57.09
41040;BME280;48586;50.122;18.972;2023-03-01T02:35:54;99675.13;;;-2.17;57.60
41040;BME280;48586;50.122;18.972;2023-03-01T02:38:06;99683.09;;;-2.19;57.42
41040;BME280;48586;50.122;18.972;2023-03-01T02:40:17;99677.88;;;-2.19;57.38
41040;BME280;48586;50.122;18.972;2023-03-01T02:42:27;99673.72;;;-2.21;57.44
41040;BME280;48586;50.122;18.972;2023-03-01T02:44:38;99687.22;;;-2.16;56.95
41040;BME280;48586;50.122;18.972;2023-03-01T02:46:44;99686.53;;;-2.18;56.77
41040;BME280;48586;50.122;18.972;2023-03-01T02:48:54;99690.91;;;-2.19;56.70
41040;BME280;48586;50.122;18.972;2023-03-01T02:51:10;99686.75;;;-2.21;56.73
41040;BME280;48586;50.122;18.972;2023-03-01T02:53:38;99680.72;;;-2.22;56.59
41040;BME280;48586;50.122;18.972;2023-03-01T02:55:49;99683.19;;;-2.20;56.95
41040;BME280;48586;50.122;18.972;2023-03-01T02:57:56;99679.75;;;-2.21;56.74
41040;BME280;48586;50.122;18.972;2023-03-01T03:00:08;99684.16;;;-2.21;56.80
41040;BME280;48586;50.122;18.972;2023-03-01T03:02:22;99676.06;;;-2.18;57.02
41040;BME280;48586;50.122;18.972;2023-03-01T03:04:40;99674.16;;;-2.16;56.61
41040;BME280;48586;50.122;18.972;2023-03-01T03:06:45;99677.38;;;-2.13;56.72
41040;BME280;48586;50.122;18.972;2023-03-01T03:08:51;99678.53;;;-2.06;56.58
41040;BME280;48586;50.122;18.972;2023-03-01T03:10:56;99678.03;;;-1.99;56.64
41040;BME280;48586;50.122;18.972;2023-03-01T03:13:03;99674.47;;;-1.98;56.44
41040;BME280;48586;50.122;18.972;2023-03-01T03:15:11;99683.16;;;-1.98;56.31
41040;BME280;48586;50.122;18.972;2023-03-01T03:17:16;99683.72;;;-1.94;56.29
41040;BME280;48586;50.122;18.972;2023-03-01T03:19:20;99685.84;;;-1.88;56.02
41040;BME280;48586;50.122;18.972;2023-03-01T03:21:24;99686.09;;;-1.91;55.72
41040;BME280;48586;50.122;18.972;2023-03-01T03:23:29;99686.47;;;-1.96;55.84
41040;BME280;48586;50.122;18.972;2023-03-01T03:25:33;99685.88;;;-1.99;55.63
41040;BME280;48586;50.122;18.972;2023-03-01T03:27:39;99677.72;;;-2.06;55.91
41040;BME280;48586;50.122;18.972;2023-03-01T03:29:46;99674.38;;;-2.08;56.28
41040;BME280;48586;50.122;18.972;2023-03-01T03:31:52;99672.00;;;-2.11;56.30
41040;BME280;48586;50.122;18.972;2023-03-01T03:33:56;99671.44;;;-2.15;56.57
41040;BME280;48586;50.122;18.972;2023-03-01T03:36:01;99671.56;;;-2.16;56.59
41040;BME280;48586;50.122;18.972;2023-03-01T03:38:08;99671.56;;;-2.16;56.46
41040;BME280;48586;50.122;18.972;2023-03-01T03:40:16;99670.84;;;-2.18;56.39
41040;BME280;48586;50.122;18.972;2023-03-01T03:42:21;99672.88;;;-2.22;56.36
41040;BME280;48586;50.122;18.972;2023-03-01T03:44:25;99673.13;;;-2.25;56.82
41040;BME280;48586;50.122;18.972;2023-03-01T03:46:29;99673.25;;;-2.26;56.79
41040;BME280;48586;50.122;18.972;2023-03-01T03:48:39;99654.25;;;-2.28;56.73
41040;BME280;48586;50.122;18.972;2023-03-01T03:50:48;99658.66;;;-2.29;56.97
41040;BME280;48586;50.122;18.972;2023-03-01T03:52:53;99654.50;;;-2.32;56.81
41040;BME280;48586;50.122;18.972;2023-03-01T03:54:58;99653.09;;;-2.36;56.74
41040;BME280;48586;50.122;18.972;2023-03-01T03:57:02;99664.50;;;-2.37;56.80
41040;BME280;48586;50.122;18.972;2023-03-01T03:59:06;99653.31;;;-2.39;56.85
41040;BME280;48586;50.122;18.972;2023-03-01T04:01:12;99659.59;;;-2.41;56.64
41040;BME280;48586;50.122;18.972;2023-03-01T04:03:17;99660.09;;;-2.47;56.72
41040;BME280;48586;50.122;18.972;2023-03-01T04:05:26;99662.00;;;-2.49;57.08
41040;BME280;48586;50.122;18.972;2023-03-01T04:07:31;99661.16;;;-2.50;57.15
41040;BME280;48586;50.122;18.972;2023-03-01T04:09:35;99669.47;;;-2.45;57.02
41040;BME280;48586;50.122;18.972;2023-03-01T04:11:39;99665.19;;;-2.46;56.75
41040;BME280;48586;50.122;18.972;2023-03-01T04:13:44;99664.34;;;-2.46;56.72
41040;BME280;48586;50.122;18.972;2023-03-01T04:15:49;99666.97;;;-2.46;56.84
41040;BME280;48586;50.122;18.972;2023-03-01T04:17:55;99672.31;;;-2.48;56.72
41040;BME280;48586;50.122;18.972;2023-03-01T04:20:00;99672.56;;;-2.51;56.51
41040;BME280;48586;50.122;18.972;2023-03-01T04:22:09;99675.41;;;-2.54;56.77
41040;BME280;48586;50.122;18.972;2023-03-01T04:24:18;99674.69;;;-2.56;56.86
41040;BME280;48586;50.122;18.972;2023-03-01T04:26:24;99673.88;;;-2.57;56.92
41040;BME280;48586;50.122;18.972;2023-03-01T04:28:30;99678.25;;;-2.57;56.80
41040;BME280;48586;50.122;18.972;2023-03-01T04:30:36;99666.28;;;-2.60;56.81
41040;BME280;48586;50.122;18.972;2023-03-01T04:32:43;99666.88;;;-2.56;57.06
41040;BME280;48586;50.122;18.972;2023-03-01T04:34:47;99669.47;;;-2.56;56.85
41040;BME280;48586;50.122;18.972;2023-03-01T04:36:51;99671.97;;;-2.55;56.98
41040;BME280;48586;50.122;18.972;2023-03-01T04:38:58;99667.69;;;-2.56;56.86
41040;BME280;48586;50.122;18.972;2023-03-01T04:41:14;99669.47;;;-2.56;57.07
41040;BME280;48586;50.122;18.972;2023-03-01T04:43:19;99666.16;;;-2.58;56.88
41040;BME280;48586;50.122;18.972;2023-03-01T04:45:24;99664.50;;;-2.59;57.07
41040;BME280;48586;50.122;18.972;2023-03-01T04:47:28;99666.16;;;-2.58;57.46
41040;BME280;48586;50.122;18.972;2023-03-01T04:49:32;99666.16;;;-2.58;57.11
41040;BME280;48586;50.122;18.972;2023-03-01T04:51:37;99665.44;;;-2.60;57.17
41040;BME280;48586;50.122;18.972;2023-03-01T04:53:42;99661.19;;;-2.61;57.19
41040;BME280;48586;50.122;18.972;2023-03-01T04:55:49;99670.53;;;-2.59;57.38
41040;BME280;48586;50.122;18.972;2023-03-01T04:57:55;99662.59;;;-2.57;57.13
41040;BME280;48586;50.122;18.972;2023-03-01T05:00:00;99660.94;;;-2.58;57.31
41040;BME280;48586;50.122;18.972;2023-03-01T05:02:22;99666.16;;;-2.58;56.95
41040;BME280;48586;50.122;18.972;2023-03-01T05:04:27;99663.78;;;-2.61;57.08
41040;BME280;48586;50.122;18.972;2023-03-01T05:06:31;99663.31;;;-2.66;57.30
41040;BME280;48586;50.122;18.972;2023-03-01T05:08:36;99663.19;;;-2.65;57.45
41040;BME280;48586;50.122;18.972;2023-03-01T05:10:41;99649.31;;;-2.65;57.42
41040;BME280;48586;50.122;18.972;2023-03-01T05:12:49;99642.47;;;-2.66;57.35
41040;BME280;48586;50.122;18.972;2023-03-01T05:14:53;99644.34;;;-2.68;57.54
41040;BME280;48586;50.122;18.972;2023-03-01T05:16:59;99646.94;;;-2.68;57.82
41040;BME280;48586;50.122;18.972;2023-03-01T05:19:05;99639.94;;;-2.68;57.60
41040;BME280;48586;50.122;18.972;2023-03-01T05:21:13;99639.94;;;-2.68;57.42
41040;BME280;48586;50.122;18.972;2023-03-01T05:23:19;99646.00;;;-2.67;57.60
41040;BME280;48586;50.122;18.972;2023-03-01T05:25:24;99647.78;;;-2.68;57.64
41040;BME280;48586;50.122;18.972;2023-03-01T05:27:28;99643.66;;;-2.70;57.68
41040;BME280;48586;50.122;18.972;2023-03-01T05:29:35;99650.66;;;-2.71;57.38
41040;BME280;48586;50.122;18.972;2023-03-01T05:31:40;99662.59;;;-2.68;57.70
41040;BME280;48586;50.122;18.972;2023-03-01T05:33:44;99654.78;;;-2.68;57.19
41040;BME280;48586;50.122;18.972;2023-03-01T05:35:50;99645.31;;;-2.69;57.38
41040;BME280;48586;50.122;18.972;2023-03-01T05:37:55;99644.59;;;-2.71;57.26
41040;BME280;48586;50.122;18.972;2023-03-01T05:39:59;99639.63;;;-2.74;57.23
41040;BME280;48586;50.122;18.972;2023-03-01T05:42:05;99645.06;;;-2.77;57.60
41040;BME280;48586;50.122;18.972;2023-03-01T05:44:10;99647.19;;;-2.83;58.28
41040;BME280;48586;50.122;18.972;2023-03-01T05:46:17;99648.50;;;-2.88;58.38
41040;BME280;48586;50.122;18.972;2023-03-01T05:48:22;99651.34;;;-2.91;58.73
41040;BME280;48586;50.122;18.972;2023-03-01T05:50:27;99647.19;;;-2.94;58.91
41040;BME280;48586;50.122;18.972;2023-03-01T05:52:33;99648.25;;;-2.96;58.80
41040;BME280;48586;50.122;18.972;2023-03-01T05:54:38;99645.06;;;-3.00;58.96
41040;BME280;48586;50.122;18.972;2023-03-01T05:56:43;99645.28;;;-3.03;58.67
41040;BME280;48586;50.122;18.972;2023-03-01T05:58:49;99644.47;;;-3.03;58.92
41040;BME280;48586;50.122;18.972;2023-03-01T06:00:55;99640.28;;;-3.06;59.03
41040;BME280;48586;50.122;18.972;2023-03-01T06:03:03;99655.09;;;-3.07;59.18
41040;BME280;48586;50.122;18.972;2023-03-01T06:05:10;99651.31;;;-3.02;59.23
41040;BME280;48586;50.122;18.972;2023-03-01T06:07:17;99659.88;;;-3.00;58.98
41040;BME280;48586;50.122;18.972;2023-03-01T06:09:21;99674.56;;;-2.99;59.02
41040;BME280;48586;50.122;18.972;2023-03-01T06:11:28;99671.81;;;-2.98;59.04
41040;BME280;48586;50.122;18.972;2023-03-01T06:13:40;99672.34;;;-2.93;59.48
41040;BME280;48586;50.122;18.972;2023-03-01T06:15:46;99672.44;;;-2.83;59.48
41040;BME280;48586;50.122;18.972;2023-03-01T06:17:51;99666.38;;;-2.72;59.40
41040;BME280;48586;50.122;18.972;2023-03-01T06:20:02;99667.59;;;-2.65;59.20
41040;BME280;48586;50.122;18.972;2023-03-01T06:22:08;99667.81;;;-2.57;59.07
41040;BME280;48586;50.122;18.972;2023-03-01T06:24:13;99668.06;;;-2.49;58.77
41040;BME280;48586;50.122;18.972;2023-03-01T06:26:18;99663.31;;;-2.44;59.22
41040;BME280;48586;50.122;18.972;2023-03-01T06:28:23;99669.44;;;-2.34;59.07
41040;BME280;48586;50.122;18.972;2023-03-01T06:30:28;99669.69;;;-2.25;58.77
41040;BME280;48586;50.122;18.972;2023-03-01T06:32:34;99666.34;;;-2.16;58.93
41040;BME280;48586;50.122;18.972;2023-03-01T06:34:39;99666.31;;;-2.05;58.77
41040;BME280;48586;50.122;18.972;2023-03-01T06:36:46;99674.09;;;-1.94;58.19
41040;BME280;48586;50.122;18.972;2023-03-01T06:38:52;99670.78;;;-1.85;58.05
41040;BME280;48586;50.122;18.972;2023-03-01T06:40:58;99664.53;;;-1.72;57.96
41040;BME280;48586;50.122;18.972;2023-03-01T06:43:03;99669.47;;;-1.58;57.57
41040;BME280;48586;50.122;18.972;2023-03-01T06:45:11;99666.94;;;-1.48;57.15
41040;BME280;48586;50.122;18.972;2023-03-01T06:47:16;99666.75;;;-1.36;56.95
41040;BME280;48586;50.122;18.972;2023-03-01T06:49:21;99664.34;;;-1.27;56.50
41040;BME280;48586;50.122;18.972;2023-03-01T06:51:26;99667.97;;;-1.19;56.35
41040;BME280;48586;50.122;18.972;2023-03-01T06:53:33;99668.00;;;-1.09;56.23
41040;BME280;48586;50.122;18.972;2023-03-01T06:55:38;99669.75;;;-0.98;56.13
41040;BME280;48586;50.122;18.972;2023-03-01T06:57:44;99666.22;;;-0.88;55.84
41040;BME280;48586;50.122;18.972;2023-03-01T06:59:49;99665.97;;;-0.85;55.39
41040;BME280;48586;50.122;18.972;2023-03-01T07:01:54;99669.69;;;-0.77;55.32
41040;BME280;48586;50.122;18.972;2023-03-01T07:04:00;99664.63;;;-0.69;55.00
41040;BME280;48586;50.122;18.972;2023-03-01T07:06:05;99664.69;;;-0.60;55.08
41040;BME280;48586;50.122;18.972;2023-03-01T07:08:10;99664.00;;;-0.52;54.77
41040;BME280;48586;50.122;18.972;2023-03-01T07:10:19;99666.69;;;-0.42;54.71
41040;BME280;48586;50.122;18.972;2023-03-01T07:12:23;99664.09;;;-0.33;54.38
41040;BME280;48586;50.122;18.972;2023-03-01T07:14:28;99654.72;;;-0.25;54.09
41040;BME280;48586;50.122;18.972;2023-03-01T07:16:33;99654.88;;;-0.17;53.97
41040;BME280;48586;50.122;18.972;2023-03-01T07:18:39;99666.47;;;-0.10;53.75
41040;BME280;48586;50.122;18.972;2023-03-01T07:20:44;99664.97;;;-0.03;53.86
41040;BME280;48586;50.122;18.972;2023-03-01T07:22:50;99666.78;;;0.06;53.67
41040;BME280;48586;50.122;18.972;2023-03-01T07:24:54;99668.59;;;0.15;52.98
41040;BME280;48586;50.122;18.972;2023-03-01T07:27:02;99672.31;;;0.23;52.95
41040;BME280;48586;50.122;18.972;2023-03-01T07:29:10;99669.13;;;0.29;52.98
41040;BME280;48586;50.122;18.972;2023-03-01T07:31:15;99657.16;;;0.36;52.54
41040;BME280;48586;50.122;18.972;2023-03-01T07:33:21;99653.81;;;0.43;52.53
41040;BME280;48586;50.122;18.972;2023-03-01T07:35:28;99654.09;;;0.50;52.55
41040;BME280;48586;50.122;18.972;2023-03-01T07:37:35;99653.97;;;0.61;52.62
41040;BME280;48586;50.122;18.972;2023-03-01T07:39:41;99638.06;;;0.72;52.55
41040;BME280;48586;50.122;18.972;2023-03-01T07:41:48;99643.59;;;0.79;52.12
41040;BME280;48586;50.122;18.972;2023-03-01T07:44:00;99641.22;;;0.86;51.31
41040;BME280;48586;50.122;18.972;2023-03-01T07:46:05;99633.63;;;0.92;51.28
41040;BME280;48586;50.122;18.972;2023-03-01T07:48:11;99628.59;;;0.99;51.61
41040;BME280;48586;50.122;18.972;2023-03-01T07:50:19;99625.03;;;1.00;50.85
41040;BME280;48586;50.122;18.972;2023-03-01T07:52:25;99614.53;;;1.00;50.69
41040;BME280;48586;50.122;18.972;2023-03-01T07:54:32;99609.56;;;0.97;50.44
41040;BME280;48586;50.122;18.972;2023-03-01T07:56:37;99616.75;;;0.95;50.48
41040;BME280;48586;50.122;18.972;2023-03-01T07:58:44;99610.13;;;0.91;50.88
41040;BME280;48586;50.122;18.972;2023-03-01T08:00:52;99612.06;;;0.89;51.29
41040;BME280;48586;50.122;18.972;2023-03-01T08:02:59;99612.06;;;0.89;51.18
41040;BME280;48586;50.122;18.972;2023-03-01T08:05:05;99613.72;;;0.90;51.53
41040;BME280;48586;50.122;18.972;2023-03-01T08:07:11;99616.75;;;0.95;51.51
41040;BME280;48586;50.122;18.972;2023-03-01T08:09:17;99608.97;;;1.03;51.76
41040;BME280;48586;50.122;18.972;2023-03-01T08:11:22;99615.56;;;1.17;51.29
41040;BME280;48586;50.122;18.972;2023-03-01T08:13:30;99618.84;;;1.29;51.37
41040;BME280;48586;50.122;18.972;2023-03-01T08:15:36;99615.44;;;1.46;51.69
41040;BME280;48586;50.122;18.972;2023-03-01T08:17:43;99616.44;;;1.63;51.29
41040;BME280;48586;50.122;18.972;2023-03-01T08:19:50;99611.50;;;1.78;50.91
41040;BME280;48586;50.122;18.972;2023-03-01T08:21:55;99607.41;;;1.93;50.75
41040;BME280;48586;50.122;18.972;2023-03-01T08:24:02;99610.50;;;2.06;49.69
41040;BME280;48586;50.122;18.972;2023-03-01T08:26:11;99604.31;;;2.15;49.97
41040;BME280;48586;50.122;18.972;2023-03-01T08:28:18;99601.84;;;2.32;50.17
41040;BME280;48586;50.122;18.972;2023-03-01T08:30:22;99612.03;;;2.53;49.52
41040;BME280;48586;50.122;18.972;2023-03-01T08:32:27;99608.91;;;2.75;49.63
41040;BME280;48586;50.122;18.972;2023-03-01T08:34:34;99611.16;;;2.96;48.69
41040;BME280;48586;50.122;18.972;2023-03-01T08:36:41;99614.94;;;3.19;47.87
41040;BME280;48586;50.122;18.972;2023-03-01T08:38:49;99608.28;;;3.41;47.78
41040;BME280;48586;50.122;18.972;2023-03-01T08:40:53;99604.75;;;3.67;47.50
41040;BME280;48586;50.122;18.972;2023-03-01T08:42:58;99603.16;;;3.90;47.02
41040;BME280;48586;50.122;18.972;2023-03-01T08:45:07;99602.72;;;4.11;46.12
41040;BME280;48586;50.122;18.972;2023-03-01T08:47:14;99598.91;;;4.22;45.95
41040;BME280;48586;50.122;18.972;2023-03-01T08:49:20;99600.56;;;4.39;45.64
41040;BME280;48586;50.122;18.972;2023-03-01T08:51:29;99599.56;;;4.57;45.10
41040;BME280;48586;50.122;18.972;2023-03-01T08:53:37;99591.97;;;4.70;44.31
41040;BME280;48586;50.122;18.972;2023-03-01T08:55:41;99593.13;;;4.76;43.97
41040;BME280;48586;50.122;18.972;2023-03-01T08:57:47;99590.81;;;4.81;43.05
41040;BME280;48586;50.122;18.972;2023-03-01T08:59:52;99579.25;;;4.82;42.48
41040;BME280;48586;50.122;18.972;2023-03-01T09:01:56;99580.06;;;4.82;42.75
41040;BME280;48586;50.122;18.972;2023-03-01T09:04:02;99578.91;;;4.85;42.82
41040;BME280;48586;50.122;18.972;2023-03-01T09:06:09;99581.19;;;4.88;42.96
41040;BME280;48586;50.122;18.972;2023-03-01T09:08:18;99577.22;;;4.92;42.02
41040;BME280;48586;50.122;18.972;2023-03-01T09:10:25;99572.44;;;4.95;41.85
41040;BME280;48586;50.122;18.972;2023-03-01T09:12:29;99575.91;;;4.96;41.93
41040;BME280;48586;50.122;18.972;2023-03-01T09:14:34;99578.41;;;4.97;42.07
41040;BME280;48586;50.122;18.972;2023-03-01T09:16:40;99584.13;;;5.01;42.25
41040;BME280;48586;50.122;18.972;2023-03-01T09:18:49;99580.16;;;5.05;42.57
41040;BME280;48586;50.122;18.972;2023-03-01T09:21:01;99579.13;;;5.14;42.34
41040;BME280;48586;50.122;18.972;2023-03-01T09:23:11;99578.81;;;5.17;42.08
41040;BME280;48586;50.122;18.972;2023-03-01T09:25:18;99581.41;;;5.25;41.95
41040;BME280;48586;50.122;18.972;2023-03-01T09:27:25;99576.44;;;5.31;40.42
41040;BME280;48586;50.122;18.972;2023-03-01T09:29:30;99573.47;;;5.34;40.20
41040;BME280;48586;50.122;18.972;2023-03-01T09:31:34;99581.34;;;5.42;40.87
41040;BME280;48586;50.122;18.972;2023-03-01T09:33:41;99578.31;;;5.53;40.79
41040;BME280;48586;50.122;18.972;2023-03-01T09:35:49;99579.97;;;5.62;40.92
41040;BME280;48586;50.122;18.972;2023-03-01T09:37:59;99570.00;;;5.72;41.23
41040;BME280;48586;50.122;18.972;2023-03-01T09:40:06;99581.16;;;5.83;40.56
41040;BME280;48586;50.122;18.972;2023-03-01T09:42:22;99576.81;;;5.90;39.93
41040;BME280;48586;50.122;18.972;2023-03-01T09:44:34;99577.59;;;5.98;40.11
41040;BME280;48586;50.122;18.972;2023-03-01T09:46:46;99570.06;;;6.10;40.20
41040;BME280;48586;50.122;18.972;2023-03-01T09:49:02;99578.72;;;6.27;40.56
41040;BME280;48586;50.122;18.972;2023-03-01T09:51:18;99581.38;;;6.42;40.30
41040;BME280;48586;50.122;18.972;2023-03-01T09:53:32;99580.59;;;6.56;40.60
41040;BME280;48586;50.122;18.972;2023-03-01T09:55:43;99578.44;;;6.74;40.39
41040;BME280;48586;50.122;18.972;2023-03-01T09:57:56;99572.53;;;6.87;38.96
41040;BME280;48586;50.122;18.972;2023-03-01T10:00:29;99578.84;;;7.01;39.17
41040;BME280;48586;50.122;18.972;2023-03-01T10:02:52;99564.56;;;7.17;39.16
41040;BME280;48586;50.122;18.972;2023-03-01T10:05:19;99562.53;;;7.34;38.45
41040;BME280;48586;50.122;18.972;2023-03-01T10:07:46;99566.66;;;7.51;37.66
41040;BME280;48586;50.122;18.972;2023-03-01T10:10:00;99561.25;;;7.59;37.29
41040;BME280;48586;50.122;18.972;2023-03-01T10:12:13;99560.56;;;7.72;37.23
41040;BME280;48586;50.122;18.972;2023-03-01T10:14:33;99563.19;;;7.87;37.13
41040;BME280;48586;50.122;18.972;2023-03-01T10:16:50;99558.19;;;7.98;37.17
41040;BME280;48586;50.122;18.972;2023-03-01T10:19:03;99550.53;;;8.10;35.99
41040;BME280;48586;50.122;18.972;2023-03-01T10:21:15;99561.34;;;8.09;35.30
41040;BME280;48586;50.122;18.972;2023-03-01T10:23:23;99548.91;;;8.09;34.45
41040;BME280;48586;50.122;18.972;2023-03-01T10:25:46;99545.81;;;8.06;34.91
41040;BME280;48586;50.122;18.972;2023-03-01T10:28:09;99542.59;;;8.10;34.54
41040;BME280;48586;50.122;18.972;2023-03-01T10:30:34;99540.53;;;8.12;34.39
41040;BME280;48586;50.122;18.972;2023-03-01T10:32:49;99538.41;;;8.22;35.26
41040;BME280;48586;50.122;18.972;2023-03-01T10:34:59;99536.09;;;8.41;35.50
41040;BME280;48586;50.122;18.972;2023-03-01T10:37:11;99538.69;;;8.62;36.18
41040;BME280;48586;50.122;18.972;2023-03-01T10:39:20;99541.44;;;8.75;34.49
41040;BME280;48586;50.122;18.972;2023-03-01T10:41:28;99539.94;;;8.94;34.37
41040;BME280;48586;50.122;18.972;2023-03-01T10:43:45;99540.03;;;9.08;33.99
41040;BME280;48586;50.122;18.972;2023-03-01T10:45:53;99530.28;;;9.28;34.16
41040;BME280;48586;50.122;18.972;2023-03-01T10:48:12;99530.16;;;9.49;33.75
41040;BME280;48586;50.122;18.972;2023-03-01T10:50:22;99521.44;;;9.69;33.53
41040;BME280;48586;50.122;18.972;2023-03-01T10:52:31;99521.06;;;9.85;31.58
41040;BME280;48586;50.122;18.972;2023-03-01T10:54:39;99520.47;;;10.03;32.40
41040;BME280;48586;50.122;18.972;2023-03-01T10:56:48;99521.50;;;10.22;32.81
41040;BME280;48586;50.122;18.972;2023-03-01T10:59:00;99516.78;;;10.37;32.75
41040;BME280;48586;50.122;18.972;2023-03-01T11:01:27;99518.63;;;10.57;31.73
41040;BME280;48586;50.122;18.972;2023-03-01T11:03:36;99516.97;;;10.69;31.54
41040;BME280;48586;50.122;18.972;2023-03-01T11:06:02;99508.38;;;10.80;31.40
41040;BME280;48586;50.122;18.972;2023-03-01T11:08:10;99501.16;;;10.94;30.75
41040;BME280;48586;50.122;18.972;2023-03-01T11:10:18;99505.22;;;11.03;30.76